sensor_id;sensor_type;location;lat;lon;timestamp;pressure;altitude;pressure_sealevel;temperature;humidity
1616;BME280;801;47.982;7.810;2024-01-30T00:02:12;99984.78;;;6.69;100.00
1616;BME280;801;47.982;7.810;2024-01-30T00:04:39;99995.28;;;6.77;100.00
1616;BME280;801;47.982;7.810;2024-01-30T00:07:05;99992.00;;;6.75;100.00
1616;BME280;801;47.982;7.810;2024-01-30T00:09:32;99996.72;;;6.79;100.00
1616;BME280;801;47.982;7.810;2024-01-30T00:12:00;99987.47;;;6.75;100.00
1616;BME280;801;47.982;7.810;2024-01-30T00:14:26;99993.25;;;6.79;100.00
1616;BME280;801;47.982;7.810;2024-01-30T00:16:53;99988.66;;;6.59;100.00
1616;BME280;801;47.982;7.810;2024-01-30T00:19:19;99987.19;;;6.50;100.00
1616;BME280;801;47.982;7.810;2024-01-30T00:21:45;99980.19;;;6.56;100.00
1616;BME280;801;47.982;7.810;2024-01-30T00:24:12;99993.34;;;6.51;100.00
1616;BME280;801;47.982;7.810;2024-01-30T00:26:38;99988.44;;;6.54;100.00
1616;BME280;801;47.982;7.810;2024-01-30T00:29:06;99978.59;;;6.61;100.00
1616;BME280;801;47.982;7.810;2024-01-30T00:31:32;99984.50;;;6.50;100.00
1616;BME280;801;47.982;7.810;2024-01-30T00:33:59;99988.84;;;6.58;100.00
1616;BME280;801;47.982;7.810;2024-01-30T00:36:26;99992.72;;;6.49;100.00
1616;BME280;801;47.982;7.810;2024-01-30T00:38:54;99988.41;;;6.48;100.00
1616;BME280;801;47.982;7.810;2024-01-30T00:41:21;100000.84;;;6.34;100.00
1616;BME280;801;47.982;7.810;2024-01-30T00:43:47;99991.25;;;6.39;100.00
1616;BME280;801;47.982;7.810;2024-01-30T00:46:15;99993.81;;;6.19;100.00
1616;BME280;801;47.982;7.810;2024-01-30T00:48:42;99996.16;;;6.36;100.00
1616;BME280;801;47.982;7.810;2024-01-30T00:51:08;99989.53;;;6.32;100.00
1616;BME280;801;47.982;7.810;2024-01-30T00:53:34;99990.13;;;6.27;100.00
1616;BME280;801;47.982;7.810;2024-01-30T00:56:01;99979.88;;;6.24;100.00
1616;BME280;801;47.982;7.810;2024-01-30T00:58:28;99992.59;;;6.22;100.00
1616;BME280;801;47.982;7.810;2024-01-30T01:00:55;99976.16;;;6.25;100.00
1616;BME280;801;47.982;7.810;2024-01-30T01:03:22;99988.56;;;6.39;100.00
1616;BME280;801;47.982;7.810;2024-01-30T01:05:49;99974.53;;;6.24;100.00
1616;BME280;801;47.982;7.810;2024-01-30T01:08:15;99983.97;;;6.27;100.00
1616;BME280;801;47.982;7.810;2024-01-30T01:10:42;99983.91;;;6.13;100.00
1616;BME280;801;47.982;7.810;2024-01-30T01:13:08;99987.31;;;6.35;100.00
1616;BME280;801;47.982;7.810;2024-01-30T01:15:35;99976.63;;;6.35;100.00
1616;BME280;801;47.982;7.810;2024-01-30T01:18:02;99990.97;;;6.21;100.00
1616;BME280;801;47.982;7.810;2024-01-30T01:20:30;99997.16;;;6.28;100.00
1616;BME280;801;47.982;7.810;2024-01-30T01:22:56;99988.13;;;6.36;100.00
1616;BME280;801;47.982;7.810;2024-01-30T01:25:23;99989.00;;;6.43;100.00
1616;BME280;801;47.982;7.810;2024-01-30T01:27:49;99989.47;;;6.18;100.00
1616;BME280;801;47.982;7.810;2024-01-30T01:30:18;99994.44;;;6.21;100.00
1616;BME280;801;47.982;7.810;2024-01-30T01:32:47;99978.00;;;6.66;98.58
1616;BME280;801;47.982;7.810;2024-01-30T01:35:20;99991.59;;;6.84;97.83
1616;BME280;801;47.982;7.810;2024-01-30T01:37:47;99985.41;;;6.71;98.17
1616;BME280;801;47.982;7.810;2024-01-30T01:40:20;99983.34;;;6.66;98.43
1616;BME280;801;47.982;7.810;2024-01-30T01:42:46;99986.63;;;6.68;98.19
1616;BME280;801;47.982;7.810;2024-01-30T01:45:13;99987.25;;;6.70;98.38
1616;BME280;801;47.982;7.810;2024-01-30T01:47:41;99976.75;;;6.62;98.88
1616;BME280;801;47.982;7.810;2024-01-30T01:50:08;99979.25;;;6.70;98.45
1616;BME280;801;47.982;7.810;2024-01-30T01:52:35;99980.03;;;6.64;98.01
1616;BME280;801;47.982;7.810;2024-01-30T01:55:04;99969.75;;;6.61;98.51
1616;BME280;801;47.982;7.810;2024-01-30T01:57:31;99963.38;;;6.62;97.88
1616;BME280;801;47.982;7.810;2024-01-30T01:59:58;99966.84;;;6.56;98.23
1616;BME280;801;47.982;7.810;2024-01-30T02:02:25;99974.81;;;7.31;93.02
1616;BME280;801;47.982;7.810;2024-01-30T02:04:53;99977.50;;;7.71;89.44
1616;BME280;801;47.982;7.810;2024-01-30T02:07:20;99978.13;;;7.33;92.10
1616;BME280;801;47.982;7.810;2024-01-30T02:09:46;99977.84;;;6.94;95.45
1616;BME280;801;47.982;7.810;2024-01-30T02:12:14;99982.56;;;6.85;96.91
1616;BME280;801;47.982;7.810;2024-01-30T02:14:44;99984.59;;;6.77;98.24
1616;BME280;801;47.982;7.810;2024-01-30T02:17:11;99968.72;;;6.62;99.01
1616;BME280;801;47.982;7.810;2024-01-30T02:19:37;99965.78;;;6.43;99.58
1616;BME280;801;47.982;7.810;2024-01-30T02:22:05;99970.88;;;6.38;99.92
1616;BME280;801;47.982;7.810;2024-01-30T02:24:32;99977.31;;;6.51;99.05
1616;BME280;801;47.982;7.810;2024-01-30T02:26:59;99974.19;;;6.40;99.72
1616;BME280;801;47.982;7.810;2024-01-30T02:29:25;99977.06;;;6.39;99.97
1616;BME280;801;47.982;7.810;2024-01-30T02:31:52;99983.44;;;6.44;99.65
1616;BME280;801;47.982;7.810;2024-01-30T02:34:18;99983.19;;;6.33;100.00
1616;BME280;801;47.982;7.810;2024-01-30T02:36:45;99978.47;;;6.28;100.00
1616;BME280;801;47.982;7.810;2024-01-30T02:39:13;99975.38;;;6.31;100.00
1616;BME280;801;47.982;7.810;2024-01-30T02:41:40;99978.53;;;6.41;100.00
1616;BME280;801;47.982;7.810;2024-01-30T02:44:06;99975.38;;;6.31;100.00
1616;BME280;801;47.982;7.810;2024-01-30T02:46:32;99975.75;;;6.21;100.00
1616;BME280;801;47.982;7.810;2024-01-30T02:48:59;99972.91;;;6.23;100.00
1616;BME280;801;47.982;7.810;2024-01-30T02:51:25;99976.44;;;6.37;100.00
1616;BME280;801;47.982;7.810;2024-01-30T02:53:52;99977.81;;;6.26;100.00
1616;BME280;801;47.982;7.810;2024-01-30T02:56:19;99990.97;;;6.21;100.00
1616;BME280;801;47.982;7.810;2024-01-30T02:58:46;99989.66;;;6.10;100.00
1616;BME280;801;47.982;7.810;2024-01-30T03:01:12;99988.03;;;6.16;100.00
1616;BME280;801;47.982;7.810;2024-01-30T03:03:39;99990.09;;;6.20;100.00
1616;BME280;801;47.982;7.810;2024-01-30T03:06:06;99992.44;;;6.30;100.00
1616;BME280;801;47.982;7.810;2024-01-30T03:08:32;99982.34;;;6.26;100.00
1616;BME280;801;47.982;7.810;2024-01-30T03:11:00;99997.75;;;6.23;100.00
1616;BME280;801;47.982;7.810;2024-01-30T03:13:28;99985.13;;;6.52;100.00
1616;BME280;801;47.982;7.810;2024-01-30T03:15:54;99989.25;;;6.55;100.00
1616;BME280;801;47.982;7.810;2024-01-30T03:18:21;99992.66;;;6.35;100.00
1616;BME280;801;47.982;7.810;2024-01-30T03:20:47;99993.75;;;6.06;100.00
1616;BME280;801;47.982;7.810;2024-01-30T03:23:13;99998.56;;;6.24;100.00
1616;BME280;801;47.982;7.810;2024-01-30T03:25:40;99996.81;;;6.44;100.00
1616;BME280;801;47.982;7.810;2024-01-30T03:28:06;100000.63;;;6.29;100.00
1616;BME280;801;47.982;7.810;2024-01-30T03:30:35;99990.41;;;6.32;100.00
1616;BME280;801;47.982;7.810;2024-01-30T03:33:02;99992.31;;;6.52;100.00
1616;BME280;801;47.982;7.810;2024-01-30T03:35:28;100000.56;;;6.57;100.00
1616;BME280;801;47.982;7.810;2024-01-30T03:37:55;100005.59;;;6.93;100.00
1616;BME280;801;47.982;7.810;2024-01-30T03:40:21;100003.09;;;6.85;100.00
1616;BME280;801;47.982;7.810;2024-01-30T03:42:48;99998.09;;;6.62;100.00
1616;BME280;801;47.982;7.810;2024-01-30T03:45:14;100012.66;;;7.67;95.76
1616;BME280;801;47.982;7.810;2024-01-30T03:47:44;100002.63;;;8.55;89.14
1616;BME280;801;47.982;7.810;2024-01-30T03:50:11;100003.28;;;8.88;85.74
1616;BME280;801;47.982;7.810;2024-01-30T03:52:37;100001.38;;;9.59;80.33
1616;BME280;801;47.982;7.810;2024-01-30T03:55:04;100009.13;;;9.92;76.43
1616;BME280;801;47.982;7.810;2024-01-30T03:57:31;100007.88;;;10.13;73.55
1616;BME280;801;47.982;7.810;2024-01-30T03:59:57;100002.44;;;10.20;72.30
1616;BME280;801;47.982;7.810;2024-01-30T04:02:24;100000.59;;;10.21;71.70
1616;BME280;801;47.982;7.810;2024-01-30T04:04:52;99995.84;;;10.41;69.56
1616;BME280;801;47.982;7.810;2024-01-30T04:07:18;99993.84;;;10.67;67.49
1616;BME280;801;47.982;7.810;2024-01-30T04:09:45;99994.44;;;10.69;66.64
1616;BME280;801;47.982;7.810;2024-01-30T04:12:11;99986.97;;;10.41;67.82
1616;BME280;801;47.982;7.810;2024-01-30T04:14:38;99992.50;;;11.06;63.85
1616;BME280;801;47.982;7.810;2024-01-30T04:17:05;99994.91;;;10.66;65.52
1616;BME280;801;47.982;7.810;2024-01-30T04:19:31;99995.88;;;10.71;64.64
1616;BME280;801;47.982;7.810;2024-01-30T04:21:59;99990.41;;;11.08;61.87
1616;BME280;801;47.982;7.810;2024-01-30T04:24:26;100013.47;;;11.16;60.85
1616;BME280;801;47.982;7.810;2024-01-30T04:26:52;99984.22;;;10.77;62.97
1616;BME280;801;47.982;7.810;2024-01-30T04:29:19;99996.88;;;11.19;60.94
1616;BME280;801;47.982;7.810;2024-01-30T04:31:45;99997.06;;;11.06;61.14
1616;BME280;801;47.982;7.810;2024-01-30T04:34:12;100000.06;;;11.39;59.45
1616;BME280;801;47.982;7.810;2024-01-30T04:36:38;99995.81;;;11.32;59.42
1616;BME280;801;47.982;7.810;2024-01-30T04:39:06;100001.84;;;11.46;58.20
1616;BME280;801;47.982;7.810;2024-01-30T04:41:33;99988.97;;;11.48;57.86
1616;BME280;801;47.982;7.810;2024-01-30T04:44:00;99998.06;;;11.23;58.91
1616;BME280;801;47.982;7.810;2024-01-30T04:46:26;100004.06;;;11.37;58.01
1616;BME280;801;47.982;7.810;2024-01-30T04:48:53;99994.38;;;11.48;57.58
1616;BME280;801;47.982;7.810;2024-01-30T04:51:19;99997.63;;;11.50;57.19
1616;BME280;801;47.982;7.810;2024-01-30T04:53:46;100002.69;;;11.58;56.78
1616;BME280;801;47.982;7.810;2024-01-30T04:56:14;100006.59;;;11.32;57.97
1616;BME280;801;47.982;7.810;2024-01-30T04:58:40;99998.28;;;11.21;58.22
1616;BME280;801;47.982;7.810;2024-01-30T05:01:07;99997.47;;;11.21;58.14
1616;BME280;801;47.982;7.810;2024-01-30T05:03:33;100007.72;;;11.12;58.52
1616;BME280;801;47.982;7.810;2024-01-30T05:06:00;100003.97;;;11.13;58.08
1616;BME280;801;47.982;7.810;2024-01-30T05:08:27;100004.78;;;11.14;57.87
1616;BME280;801;47.982;7.810;2024-01-30T05:10:53;100009.97;;;11.27;56.96
1616;BME280;801;47.982;7.810;2024-01-30T05:13:21;100014.00;;;11.36;56.68
1616;BME280;801;47.982;7.810;2024-01-30T05:15:47;100011.56;;;11.47;56.09
1616;BME280;801;47.982;7.810;2024-01-30T05:18:14;100006.28;;;11.40;56.19
1616;BME280;801;47.982;7.810;2024-01-30T05:20:40;100019.94;;;11.27;56.94
1616;BME280;801;47.982;7.810;2024-01-30T05:23:07;100012.06;;;11.25;57.19
1616;BME280;801;47.982;7.810;2024-01-30T05:25:33;100012.75;;;11.51;56.27
1616;BME280;801;47.982;7.810;2024-01-30T05:28:00;100020.34;;;11.54;55.73
1616;BME280;801;47.982;7.810;2024-01-30T05:30:27;100026.78;;;11.41;56.64
1616;BME280;801;47.982;7.810;2024-01-30T05:32:54;100017.84;;;11.40;56.30
1616;BME280;801;47.982;7.810;2024-01-30T05:35:20;100014.03;;;11.60;55.31
1616;BME280;801;47.982;7.810;2024-01-30T05:37:47;100028.19;;;11.55;55.69
1616;BME280;801;47.982;7.810;2024-01-30T05:40:15;100029.22;;;11.42;56.09
1616;BME280;801;47.982;7.810;2024-01-30T05:42:41;100030.78;;;11.50;55.98
1616;BME280;801;47.982;7.810;2024-01-30T05:45:08;100025.59;;;11.49;55.97
1616;BME280;801;47.982;7.810;2024-01-30T05:47:36;100026.31;;;11.44;56.55
1616;BME280;801;47.982;7.810;2024-01-30T05:50:03;100040.56;;;11.45;56.74
1616;BME280;801;47.982;7.810;2024-01-30T05:52:29;100028.03;;;11.38;57.08
1616;BME280;801;47.982;7.810;2024-01-30T05:54:56;100037.75;;;11.39;57.08
1616;BME280;801;47.982;7.810;2024-01-30T05:57:22;100038.59;;;11.52;57.31
1616;BME280;801;47.982;7.810;2024-01-30T05:59:49;100034.28;;;11.51;57.56
1616;BME280;801;47.982;7.810;2024-01-30T06:02:17;100030.25;;;11.30;58.65
1616;BME280;801;47.982;7.810;2024-01-30T06:04:45;100041.69;;;11.25;59.11
1616;BME280;801;47.982;7.810;2024-01-30T06:07:11;100047.66;;;11.27;59.55
1616;BME280;801;47.982;7.810;2024-01-30T06:09:38;100049.75;;;11.25;59.84
1616;BME280;801;47.982;7.810;2024-01-30T06:12:05;100032.88;;;11.18;60.88
1616;BME280;801;47.982;7.810;2024-01-30T06:14:31;100043.56;;;11.25;60.89
1616;BME280;801;47.982;7.810;2024-01-30T06:16:58;100035.00;;;11.16;61.71
1616;BME280;801;47.982;7.810;2024-01-30T06:19:25;100048.13;;;11.24;61.47
1616;BME280;801;47.982;7.810;2024-01-30T06:21:53;100045.84;;;11.09;62.42
1616;BME280;801;47.982;7.810;2024-01-30T06:24:19;100046.88;;;10.96;63.25
1616;BME280;801;47.982;7.810;2024-01-30T06:26:46;100052.97;;;11.04;62.79
1616;BME280;801;47.982;7.810;2024-01-30T06:29:12;100055.44;;;11.05;62.64
1616;BME280;801;47.982;7.810;2024-01-30T06:31:40;100058.34;;;11.04;62.86
1616;BME280;801;47.982;7.810;2024-01-30T06:34:07;100055.06;;;11.01;63.08
1616;BME280;801;47.982;7.810;2024-01-30T06:36:34;100058.94;;;11.06;63.27
1616;BME280;801;47.982;7.810;2024-01-30T06:39:02;100051.47;;;10.89;64.12
1616;BME280;801;47.982;7.810;2024-01-30T06:41:28;100047.47;;;10.80;64.74
1616;BME280;801;47.982;7.810;2024-01-30T06:43:55;100057.78;;;10.83;64.97
1616;BME280;801;47.982;7.810;2024-01-30T06:46:21;100054.94;;;10.96;64.52
1616;BME280;801;47.982;7.810;2024-01-30T06:48:48;100057.31;;;10.86;65.19
1616;BME280;801;47.982;7.810;2024-01-30T06:51:14;100056.84;;;10.89;65.37
1616;BME280;801;47.982;7.810;2024-01-30T06:53:41;100044.75;;;10.98;66.05
1616;BME280;801;47.982;7.810;2024-01-30T06:56:08;100051.47;;;11.50;63.89
1616;BME280;801;47.982;7.810;2024-01-30T06:58:36;100059.69;;;11.25;64.20
1616;BME280;801;47.982;7.810;2024-01-30T07:01:02;100047.03;;;11.13;65.12
1616;BME280;801;47.982;7.810;2024-01-30T07:03:29;100056.19;;;11.24;64.71
1616;BME280;801;47.982;7.810;2024-01-30T07:05:55;100051.66;;;10.94;65.97
1616;BME280;801;47.982;7.810;2024-01-30T07:08:22;100059.53;;;11.08;65.49
1616;BME280;801;47.982;7.810;2024-01-30T07:10:48;100054.16;;;11.08;66.08
1616;BME280;801;47.982;7.810;2024-01-30T07:13:16;100061.50;;;10.82;66.65
1616;BME280;801;47.982;7.810;2024-01-30T07:15:43;100063.69;;;10.92;66.69
1616;BME280;801;47.982;7.810;2024-01-30T07:18:09;100077.25;;;10.97;66.43
1616;BME280;801;47.982;7.810;2024-01-30T07:20:36;100055.06;;;11.01;66.27
1616;BME280;801;47.982;7.810;2024-01-30T07:23:02;100074.44;;;10.92;66.81
1616;BME280;801;47.982;7.810;2024-01-30T07:25:29;100075.78;;;11.01;65.75
1616;BME280;801;47.982;7.810;2024-01-30T07:27:55;100076.66;;;10.95;66.49
1616;BME280;801;47.982;7.810;2024-01-30T07:30:24;100063.91;;;10.90;66.53
1616;BME280;801;47.982;7.810;2024-01-30T07:32:50;100072.91;;;10.96;65.83
1616;BME280;801;47.982;7.810;2024-01-30T07:35:16;100069.41;;;10.95;65.51
1616;BME280;801;47.982;7.810;2024-01-30T07:37:43;100073.16;;;10.94;66.04
1616;BME280;801;47.982;7.810;2024-01-30T07:40:10;100081.66;;;10.91;65.50
1616;BME280;801;47.982;7.810;2024-01-30T07:42:37;100079.28;;;11.01;65.16
1616;BME280;801;47.982;7.810;2024-01-30T07:45:04;100070.72;;;11.23;64.42
1616;BME280;801;47.982;7.810;2024-01-30T07:47:32;100071.13;;;11.08;64.63
1616;BME280;801;47.982;7.810;2024-01-30T07:49:59;100080.50;;;11.17;64.93
1616;BME280;801;47.982;7.810;2024-01-30T07:52:25;100082.97;;;11.19;65.07
1616;BME280;801;47.982;7.810;2024-01-30T07:54:51;100087.81;;;11.29;65.09
1616;BME280;801;47.982;7.810;2024-01-30T07:57:18;100097.38;;;11.25;65.26
1616;BME280;801;47.982;7.810;2024-01-30T07:59:45;100080.50;;;11.17;65.52
1616;BME280;801;47.982;7.810;2024-01-30T08:02:12;100086.28;;;11.21;65.49
1616;BME280;801;47.982;7.810;2024-01-30T08:04:40;100080.41;;;11.24;65.28
1616;BME280;801;47.982;7.810;2024-01-30T08:07:06;100079.22;;;11.20;65.42
1616;BME280;801;47.982;7.810;2024-01-30T08:09:33;100077.41;;;11.32;65.11
1616;BME280;801;47.982;7.810;2024-01-30T08:11:59;100080.81;;;11.39;64.78
1616;BME280;801;47.982;7.810;2024-01-30T08:14:26;100088.91;;;11.39;64.84
1616;BME280;801;47.982;7.810;2024-01-30T08:16:52;100079.75;;;11.40;64.91
1616;BME280;801;47.982;7.810;2024-01-30T08:19:19;100084.84;;;11.49;64.33
1616;BME280;801;47.982;7.810;2024-01-30T08:21:46;100076.34;;;11.75;63.97
1616;BME280;801;47.982;7.810;2024-01-30T08:24:13;100079.47;;;11.60;64.27
1616;BME280;801;47.982;7.810;2024-01-30T08:26:39;100080.31;;;11.61;64.63
1616;BME280;801;47.982;7.810;2024-01-30T08:29:06;100078.38;;;11.50;65.04
1616;BME280;801;47.982;7.810;2024-01-30T08:31:32;100072.28;;;11.42;65.34
1616;BME280;801;47.982;7.810;2024-01-30T08:33:59;100082.13;;;11.49;64.96
1616;BME280;801;47.982;7.810;2024-01-30T08:36:25;100080.16;;;11.56;64.68
1616;BME280;801;47.982;7.810;2024-01-30T08:38:53;100070.09;;;11.51;64.40
1616;BME280;801;47.982;7.810;2024-01-30T08:41:20;100064.47;;;11.53;64.82
1616;BME280;801;47.982;7.810;2024-01-30T08:43:46;100067.28;;;11.46;64.24
1616;BME280;801;47.982;7.810;2024-01-30T08:46:13;100073.16;;;11.55;63.84
1616;BME280;801;47.982;7.810;2024-01-30T08:48:40;100066.34;;;11.52;64.49
1616;BME280;801;47.982;7.810;2024-01-30T08:51:07;100070.91;;;11.52;64.17
1616;BME280;801;47.982;7.810;2024-01-30T08:53:34;100070.31;;;11.50;63.80
1616;BME280;801;47.982;7.810;2024-01-30T08:56:03;100066.00;;;11.49;64.05
1616;BME280;801;47.982;7.810;2024-01-30T08:58:30;100060.41;;;11.62;63.48
1616;BME280;801;47.982;7.810;2024-01-30T09:00:56;100065.06;;;11.55;63.29
1616;BME280;801;47.982;7.810;2024-01-30T09:03:23;100081.66;;;11.52;62.90
1616;BME280;801;47.982;7.810;2024-01-30T09:05:49;100081.66;;;11.52;62.96
1616;BME280;801;47.982;7.810;2024-01-30T09:08:16;100078.19;;;11.63;62.33
1616;BME280;801;47.982;7.810;2024-01-30T09:10:42;100078.06;;;11.58;61.62
1616;BME280;801;47.982;7.810;2024-01-30T09:13:11;100085.34;;;11.69;61.75
1616;BME280;801;47.982;7.810;2024-01-30T09:15:37;100088.63;;;11.71;61.14
1616;BME280;801;47.982;7.810;2024-01-30T09:18:04;100092.88;;;11.79;61.49
1616;BME280;801;47.982;7.810;2024-01-30T09:20:31;100092.03;;;11.78;61.36
1616;BME280;801;47.982;7.810;2024-01-30T09:22:57;100093.69;;;11.79;61.55
1616;BME280;801;47.982;7.810;2024-01-30T09:25:23;100088.50;;;11.66;61.26
1616;BME280;801;47.982;7.810;2024-01-30T09:27:50;100088.28;;;11.68;61.05
1616;BME280;801;47.982;7.810;2024-01-30T09:30:18;100092.03;;;11.67;61.25
1616;BME280;801;47.982;7.810;2024-01-30T09:32:44;100091.22;;;11.66;61.17
1616;BME280;801;47.982;7.810;2024-01-30T09:35:11;100108.88;;;11.62;61.66
1616;BME280;801;47.982;7.810;2024-01-30T09:37:37;100096.91;;;11.58;60.58
1616;BME280;801;47.982;7.810;2024-01-30T09:40:05;100103.34;;;11.57;60.54
1616;BME280;801;47.982;7.810;2024-01-30T09:42:33;100102.78;;;11.67;59.84
1616;BME280;801;47.982;7.810;2024-01-30T09:45:01;100100.47;;;11.70;60.22
1616;BME280;801;47.982;7.810;2024-01-30T09:47:32;100103.56;;;11.86;60.13
1616;BME280;801;47.982;7.810;2024-01-30T09:49:58;100118.13;;;11.66;59.58
1616;BME280;801;47.982;7.810;2024-01-30T09:52:25;100113.47;;;11.73;60.01
1616;BME280;801;47.982;7.810;2024-01-30T09:54:53;100118.72;;;11.68;60.05
1616;BME280;801;47.982;7.810;2024-01-30T09:57:19;100106.28;;;11.67;60.39
1616;BME280;801;47.982;7.810;2024-01-30T09:59:46;100122.81;;;11.71;60.54
1616;BME280;801;47.982;7.810;2024-01-30T10:02:13;100127.41;;;11.70;60.50
1616;BME280;801;47.982;7.810;2024-01-30T10:04:41;100120.56;;;11.56;60.46
1616;BME280;801;47.982;7.810;2024-01-30T10:07:08;100118.94;;;11.67;60.53
1616;BME280;801;47.982;7.810;2024-01-30T10:09:36;100127.72;;;11.62;59.47
1616;BME280;801;47.982;7.810;2024-01-30T10:12:04;100116.16;;;11.73;57.68
1616;BME280;801;47.982;7.810;2024-01-30T10:14:30;100113.13;;;11.81;58.00
1616;BME280;801;47.982;7.810;2024-01-30T10:16:57;100111.78;;;11.91;58.70
1616;BME280;801;47.982;7.810;2024-01-30T10:19:24;100117.41;;;12.01;58.28
1616;BME280;801;47.982;7.810;2024-01-30T10:21:51;100104.50;;;11.91;57.43
1616;BME280;801;47.982;7.810;2024-01-30T10:24:18;100114.47;;;11.91;56.75
1616;BME280;801;47.982;7.810;2024-01-30T10:26:45;100109.91;;;12.03;55.50
1616;BME280;801;47.982;7.810;2024-01-30T10:29:11;100103.59;;;12.33;54.87
1616;BME280;801;47.982;7.810;2024-01-30T10:31:37;100113.69;;;12.49;54.96
1616;BME280;801;47.982;7.810;2024-01-30T10:34:04;100101.50;;;12.35;54.33
1616;BME280;801;47.982;7.810;2024-01-30T10:36:34;100101.72;;;12.45;52.99
1616;BME280;801;47.982;7.810;2024-01-30T10:39:06;100100.28;;;12.54;52.90
1616;BME280;801;47.982;7.810;2024-01-30T10:41:40;100100.84;;;12.68;52.67
1616;BME280;801;47.982;7.810;2024-01-30T10:44:10;100099.84;;;12.57;52.90
1616;BME280;801;47.982;7.810;2024-01-30T10:46:38;100099.34;;;12.60;52.75
1616;BME280;801;47.982;7.810;2024-01-30T10:49:05;100121.06;;;12.42;51.28
1616;BME280;801;47.982;7.810;2024-01-30T10:51:32;100108.50;;;12.48;52.09
1616;BME280;801;47.982;7.810;2024-01-30T10:54:01;100113.06;;;12.59;52.30
1616;BME280;801;47.982;7.810;2024-01-30T10:56:29;100102.06;;;12.60;51.90
1616;BME280;801;47.982;7.810;2024-01-30T10:58:57;100096.03;;;12.82;52.22
1616;BME280;801;47.982;7.810;2024-01-30T11:01:24;100106.59;;;12.72;52.39
1616;BME280;801;47.982;7.810;2024-01-30T11:03:51;100104.00;;;12.77;51.80
1616;BME280;801;47.982;7.810;2024-01-30T11:06:22;100099.25;;;13.07;51.60
1616;BME280;801;47.982;7.810;2024-01-30T11:09:00;100094.38;;;13.33;51.47
1616;BME280;801;47.982;7.810;2024-01-30T11:11:28;100087.63;;;13.81;50.49
1616;BME280;801;47.982;7.810;2024-01-30T11:13:55;100092.25;;;13.23;51.87
1616;BME280;801;47.982;7.810;2024-01-30T11:16:21;100082.75;;;13.21;52.19
1616;BME280;801;47.982;7.810;2024-01-30T11:18:50;100071.28;;;13.14;52.96
1616;BME280;801;47.982;7.810;2024-01-30T11:21:17;100089.31;;;13.25;51.54
1616;BME280;801;47.982;7.810;2024-01-30T11:23:43;100086.38;;;13.38;52.05
1616;BME280;801;47.982;7.810;2024-01-30T11:26:10;100085.16;;;14.30;50.27
1616;BME280;801;47.982;7.810;2024-01-30T11:28:38;100088.94;;;13.79;51.42
1616;BME280;801;47.982;7.810;2024-01-30T11:31:05;100078.97;;;13.79;52.25
1616;BME280;801;47.982;7.810;2024-01-30T11:33:32;100076.38;;;13.84;52.45
1616;BME280;801;47.982;7.810;2024-01-30T11:36:00;100082.09;;;13.71;52.12
1616;BME280;801;47.982;7.810;2024-01-30T11:38:27;100075.91;;;13.59;52.90
1616;BME280;801;47.982;7.810;2024-01-30T11:40:54;100072.25;;;13.82;53.17
1616;BME280;801;47.982;7.810;2024-01-30T11:43:21;100069.97;;;13.74;53.65
1616;BME280;801;47.982;7.810;2024-01-30T11:45:49;100062.59;;;13.86;53.11
1616;BME280;801;47.982;7.810;2024-01-30T11:48:16;100054.47;;;13.52;52.36
1616;BME280;801;47.982;7.810;2024-01-30T11:50:43;100061.59;;;13.92;52.63
1616;BME280;801;47.982;7.810;2024-01-30T11:53:11;100056.84;;;13.48;53.01
1616;BME280;801;47.982;7.810;2024-01-30T11:55:38;100069.31;;;13.66;52.71
1616;BME280;801;47.982;7.810;2024-01-30T11:58:05;100059.16;;;13.74;52.33
1616;BME280;801;47.982;7.810;2024-01-30T12:00:31;100056.19;;;13.75;53.09
1616;BME280;801;47.982;7.810;2024-01-30T12:02:59;100053.34;;;14.77;51.78
1616;BME280;801;47.982;7.810;2024-01-30T12:05:27;100064.41;;;14.97;51.10
1616;BME280;801;47.982;7.810;2024-01-30T12:07:54;100060.56;;;14.49;51.84
1616;BME280;801;47.982;7.810;2024-01-30T12:10:24;100049.19;;;14.30;52.72
1616;BME280;801;47.982;7.810;2024-01-30T12:12:50;100039.94;;;14.26;53.81
1616;BME280;801;47.982;7.810;2024-01-30T12:15:18;100070.19;;;13.72;55.76
1616;BME280;801;47.982;7.810;2024-01-30T12:17:46;100054.53;;;13.57;57.08
1616;BME280;801;47.982;7.810;2024-01-30T12:20:17;100058.16;;;13.63;56.24
1616;BME280;801;47.982;7.810;2024-01-30T12:22:45;100045.06;;;13.38;57.42
1616;BME280;801;47.982;7.810;2024-01-30T12:25:12;100058.03;;;13.86;57.09
1616;BME280;801;47.982;7.810;2024-01-30T12:27:39;100043.94;;;13.84;57.25
1616;BME280;801;47.982;7.810;2024-01-30T12:30:09;100081.19;;;13.82;58.15
1616;BME280;801;47.982;7.810;2024-01-30T12:32:36;100047.09;;;13.81;59.09
1616;BME280;801;47.982;7.810;2024-01-30T12:35:03;100045.81;;;13.67;59.73
1616;BME280;801;47.982;7.810;2024-01-30T12:37:31;100050.28;;;14.29;59.04
1616;BME280;801;47.982;7.810;2024-01-30T12:39:58;100056.63;;;13.67;59.70
1616;BME280;801;47.982;7.810;2024-01-30T12:42:27;100058.41;;;13.61;59.10
1616;BME280;801;47.982;7.810;2024-01-30T12:44:53;100046.50;;;14.13;58.38
1616;BME280;801;47.982;7.810;2024-01-30T12:47:21;100046.31;;;14.37;57.75
1616;BME280;801;47.982;7.810;2024-01-30T12:49:47;100053.19;;;13.72;58.14
1616;BME280;801;47.982;7.810;2024-01-30T12:52:15;100046.31;;;14.20;57.47
1616;BME280;801;47.982;7.810;2024-01-30T12:54:43;100049.31;;;14.18;57.35
1616;BME280;801;47.982;7.810;2024-01-30T12:57:10;100046.91;;;14.22;57.42
1616;BME280;801;47.982;7.810;2024-01-30T12:59:36;100039.06;;;14.20;56.77
1616;BME280;801;47.982;7.810;2024-01-30T13:02:03;100049.63;;;14.44;56.98
1616;BME280;801;47.982;7.810;2024-01-30T13:04:30;100040.31;;;14.35;56.64
1616;BME280;801;47.982;7.810;2024-01-30T13:06:57;100037.81;;;14.50;56.80
1616;BME280;801;47.982;7.810;2024-01-30T13:09:23;100034.72;;;14.41;57.02
1616;BME280;801;47.982;7.810;2024-01-30T13:11:52;100038.47;;;14.18;58.06
1616;BME280;801;47.982;7.810;2024-01-30T13:14:19;100051.00;;;14.24;57.60
1616;BME280;801;47.982;7.810;2024-01-30T13:16:44;100047.25;;;14.08;58.32
1616;BME280;801;47.982;7.810;2024-01-30T13:19:11;100045.31;;;14.43;58.01
1616;BME280;801;47.982;7.810;2024-01-30T13:21:37;100038.34;;;14.69;57.40
1616;BME280;801;47.982;7.810;2024-01-30T13:24:05;100035.06;;;14.45;57.80
1616;BME280;801;47.982;7.810;2024-01-30T13:26:32;100041.66;;;14.54;57.90